createdAt,value
2018-11-06T00:00:26.763Z,30.37
2018-11-06T01:10:38.360Z,32.80
2018-11-06T02:03:27.617Z,30.30
2018-11-06T03:25:38.280Z,40.70
2018-11-06T04:07:53.944Z,34.80
2018-11-06T04:13:34.850Z,35.73
2018-11-06T04:16:03.834Z,34.47
2018-11-06T04:34:22.486Z,33.43
2018-11-06T04:36:50.728Z,33.23
2018-11-06T04:39:18.960Z,32.83
2018-11-06T04:41:47.164Z,29.33
2018-11-06T04:44:15.377Z,30.40
2018-11-06T04:46:43.587Z,32.37
2018-11-06T04:49:11.788Z,31.60
2018-11-06T04:51:39.996Z,27.73
2018-11-06T04:54:08.209Z,30.63
2018-11-06T04:56:36.449Z,29.40
2018-11-06T04:59:04.669Z,32.87
2018-11-06T05:01:32.968Z,29.17
2018-11-06T05:04:01.162Z,32.93
2018-11-06T05:06:29.370Z,29.77
2018-11-06T05:08:57.648Z,30.97
2018-11-06T05:11:25.932Z,29.87
2018-11-06T05:13:54.116Z,29.43
2018-11-06T05:16:22.301Z,31.23
2018-11-06T05:18:50.514Z,32.97
2018-11-06T05:21:18.732Z,31.43
2018-11-06T05:23:46.931Z,29.50
2018-11-06T05:26:15.159Z,28.57
2018-11-06T05:28:43.376Z,30.47
2018-11-06T05:31:11.648Z,30.63
2018-11-06T05:33:39.841Z,26.43
2018-11-06T05:36:08.067Z,29.67
2018-11-06T05:38:36.255Z,27.40
2018-11-06T05:41:05.688Z,30.93
2018-11-06T05:43:34.469Z,27.10
2018-11-06T05:46:02.721Z,30.97
2018-11-06T05:48:31.011Z,28.87
2018-11-06T05:50:59.241Z,28.63
2018-11-06T05:53:27.496Z,28.73
2018-11-06T05:55:55.694Z,25.57
2018-11-06T05:58:23.891Z,24.30
2018-11-06T06:00:52.144Z,28.70
2018-11-06T06:03:20.392Z,28.60
2018-11-06T06:05:48.553Z,26.03
2018-11-06T06:08:16.819Z,28.93
2018-11-06T06:10:45.055Z,25.53
2018-11-06T06:13:13.256Z,23.00
2018-11-06T06:15:41.451Z,26.47
2018-11-06T06:18:09.693Z,22.67
2018-11-06T06:20:37.900Z,24.00
2018-11-06T06:23:06.308Z,23.83
2018-11-06T06:25:34.531Z,22.87
2018-11-06T06:28:02.695Z,22.43
2018-11-06T06:30:30.919Z,25.97
2018-11-06T06:32:59.167Z,21.73
2018-11-06T06:35:27.379Z,24.00
2018-11-06T06:37:55.568Z,26.07
2018-11-06T06:40:23.809Z,27.17
2018-11-06T06:42:52.083Z,23.67
2018-11-06T06:45:20.330Z,26.47
2018-11-06T06:47:48.514Z,25.90
2018-11-06T06:50:17.911Z,22.00
2018-11-06T06:52:46.618Z,25.77
2018-11-06T06:55:15.517Z,29.20
2018-11-06T06:57:44.471Z,27.17
2018-11-06T07:00:16.441Z,26.43
2018-11-06T07:02:44.657Z,22.83
2018-11-06T07:05:15.002Z,24.90
2018-11-06T07:07:43.727Z,25.93
2018-11-06T07:10:13.757Z,23.50
2018-11-06T07:12:43.172Z,26.07
2018-11-06T07:15:12.546Z,24.80
2018-11-06T07:17:41.129Z,25.50
2018-11-06T07:20:11.682Z,22.70
2018-11-06T07:22:39.971Z,22.43
2018-11-06T07:25:09.366Z,21.90
2018-11-06T07:27:37.833Z,19.77
2018-11-06T07:30:08.563Z,22.27
2018-11-06T07:32:36.964Z,21.27
2018-11-06T07:35:06.324Z,20.97
2018-11-06T07:37:34.454Z,21.50
2018-11-06T07:40:02.965Z,20.53
2018-11-06T07:42:31.253Z,20.67
2018-11-06T07:44:59.504Z,18.33
2018-11-06T07:47:28.017Z,21.73
2018-11-06T07:49:56.334Z,23.33
2018-11-06T07:52:24.500Z,20.50
2018-11-06T07:54:52.690Z,20.47
2018-11-06T07:57:20.943Z,20.80
2018-11-06T07:59:49.513Z,22.97
2018-11-06T08:02:17.810Z,22.37
2018-11-06T08:04:46.044Z,23.67
2018-11-06T08:07:14.276Z,23.73
2018-11-06T08:09:42.580Z,21.17
2018-11-06T08:12:10.783Z,20.67
2018-11-06T08:14:39.063Z,19.57
2018-11-06T08:17:07.473Z,20.63
2018-11-06T08:19:35.683Z,24.87
2018-11-06T08:22:03.903Z,24.63
2018-11-06T08:24:32.135Z,22.83
2018-11-06T08:27:00.349Z,18.80
2018-11-06T08:29:28.587Z,25.33
2018-11-06T08:31:57.046Z,24.77
2018-11-06T08:34:25.046Z,22.07
2018-11-06T08:36:53.305Z,19.70
2018-11-06T08:39:21.454Z,22.77
2018-11-06T08:41:49.664Z,20.90
2018-11-06T08:44:17.911Z,24.13
2018-11-06T08:46:46.123Z,20.43
2018-11-06T08:49:14.375Z,21.77
2018-11-06T08:51:42.597Z,18.90
2018-11-06T08:54:10.783Z,21.23
2018-11-06T08:56:39.099Z,17.83
2018-11-06T08:59:07.288Z,23.17
2018-11-06T09:01:35.931Z,18.13
2018-11-06T09:04:04.129Z,19.57
2018-11-06T09:06:32.374Z,18.77
2018-11-06T09:09:00.601Z,21.77
2018-11-06T09:11:28.807Z,20.53
2018-11-06T09:13:57.006Z,18.50
2018-11-06T09:16:25.222Z,19.67
2018-11-06T09:18:53.439Z,22.43
2018-11-06T09:21:21.615Z,18.97
2018-11-06T09:23:49.871Z,18.80
2018-11-06T09:26:18.240Z,19.87
2018-11-06T09:28:46.405Z,19.37
2018-11-06T09:31:14.575Z,22.77
2018-11-06T09:33:42.765Z,21.73
2018-11-06T09:36:11.131Z,19.97
2018-11-06T09:38:39.335Z,19.03
2018-11-06T09:41:07.537Z,20.27
2018-11-06T09:43:35.780Z,19.33
2018-11-06T09:46:04.051Z,17.57
2018-11-06T09:48:32.318Z,18.63
2018-11-06T09:51:00.533Z,16.83
2018-11-06T09:53:28.755Z,18.03
2018-11-06T09:55:56.978Z,22.80
2018-11-06T09:58:25.187Z,20.90
2018-11-06T10:00:53.425Z,18.87
2018-11-06T10:03:21.622Z,22.37
2018-11-06T10:05:49.858Z,22.07
2018-11-06T10:08:18.075Z,20.80
2018-11-06T10:10:46.288Z,20.57
2018-11-06T10:13:14.499Z,18.17
2018-11-06T10:15:42.747Z,23.23
2018-11-06T10:18:10.935Z,19.70
2018-11-06T10:20:39.186Z,23.50
2018-11-06T10:23:07.419Z,18.43
2018-11-06T10:25:35.661Z,21.17
2018-11-06T10:28:03.870Z,20.03
2018-11-06T10:30:32.162Z,19.53
2018-11-06T10:33:00.370Z,25.03
2018-11-06T10:44:42.806Z,18.77
2018-11-06T10:47:23.457Z,18.53
2018-11-06T10:49:58.734Z,19.27
2018-11-06T10:52:56.819Z,17.13
2018-11-06T11:17:49.093Z,17.20
2018-11-06T11:20:20.562Z,17.37
2018-11-06T11:22:58.661Z,17.90
2018-11-06T11:28:40.095Z,16.27
2018-11-06T11:31:12.380Z,15.13
2018-11-06T11:49:32.680Z,14.40
2018-11-06T11:52:07.457Z,13.80
2018-11-06T11:54:44.952Z,14.03
2018-11-06T11:57:23.159Z,11.10
2018-11-06T12:00:28.992Z,14.47
2018-11-06T12:03:10.300Z,13.43
2018-11-06T12:05:46.079Z,13.63
2018-11-06T12:08:16.769Z,13.62
2018-11-06T12:10:55.197Z,13.00
2018-11-06T12:13:29.005Z,13.13
2018-11-06T12:21:37.204Z,13.53
2018-11-06T12:24:40.661Z,12.87
2018-11-06T12:27:25.052Z,12.03
2018-11-06T12:33:12.861Z,12.23
2018-11-06T12:39:29.488Z,11.73
2018-11-06T12:42:06.466Z,14.00
2018-11-06T12:44:44.984Z,14.93
2018-11-06T12:52:23.228Z,10.47
2018-11-06T12:58:09.055Z,13.07
2018-11-06T13:14:02.259Z,11.00
2018-11-06T13:16:37.569Z,7.57
2018-11-06T13:19:08.343Z,9.73
2018-11-06T13:21:43.369Z,8.27
2018-11-06T13:24:19.863Z,9.00
2018-11-06T13:42:39.029Z,10.93
2018-11-06T13:45:26.933Z,9.53
2018-11-06T13:53:36.996Z,13.83
2018-11-06T14:16:03.811Z,10.90
2018-11-06T14:18:34.853Z,11.00
2018-11-06T14:21:10.062Z,10.80
2018-11-06T14:36:37.610Z,11.53
2018-11-06T14:39:09.483Z,10.93
2018-11-06T14:42:09.673Z,11.53
2018-11-06T14:44:40.275Z,11.37
2018-11-06T14:47:13.050Z,13.07
2018-11-06T14:49:41.771Z,15.63
2018-11-06T14:54:45.664Z,15.50
2018-11-06T14:57:14.915Z,10.03
2018-11-06T14:59:44.574Z,12.17
2018-11-06T15:02:20.711Z,11.67
2018-11-06T15:04:52.593Z,11.43
2018-11-06T15:07:26.298Z,13.33
2018-11-06T15:10:03.560Z,11.17
2018-11-06T15:12:32.239Z,10.97
2018-11-06T15:15:01.368Z,13.60
2018-11-06T15:17:30.534Z,12.83
2018-11-06T15:19:59.333Z,12.97
2018-11-06T15:22:30.242Z,12.83
2018-11-06T15:25:00.410Z,12.10
2018-11-06T15:27:40.463Z,13.67
2018-11-06T15:30:14.872Z,12.87
2018-11-06T15:37:23.643Z,13.40
2018-11-06T15:44:32.420Z,14.57
2018-11-06T15:47:10.993Z,10.93
2018-11-06T16:25:50.367Z,17.13
2018-11-06T16:28:29.990Z,19.57
2018-11-06T16:31:02.474Z,14.73
2018-11-06T17:00:38.791Z,19.97
2018-11-06T18:39:59.521Z,15.30
2018-11-06T19:26:24.005Z,20.97
2018-11-06T19:29:03.030Z,26.40
2018-11-06T20:38:58.238Z,16.73
2018-11-06T21:03:10.278Z,23.57
2018-11-06T21:17:13.288Z,19.23
2018-11-06T21:22:58.636Z,17.77
2018-11-06T21:25:56.382Z,14.13
2018-11-06T21:28:54.645Z,17.33
2018-11-06T22:25:23.886Z,20.53
